Shelter Island Heights, NY

2:29 PM EDT on August 28, 2015 (GMT -0400)
KNYSHELT2 | | Change Station
CLOSE
Current Station
Personal Weather Station
Location: Shelter Island Heights, NY
Elevation: 73 ft
Nearby Weather Stations

Elev 73 ft 41.07 °N, 72.36 °W | Updated 9 minutes ago

Mostly Cloudy
Mostly Cloudy
83.2 °F
Feels Like 83 °F
N
1.0
Wind Variable Wind from West

Today
High -- | Low -- °F
--% Chance of Precip.
Yesterday
High -- | Low -- °F
Precip. -- in
6:11 AM 7:28 PM
Waxing Gibbous, 98% visible
Pressure 30.18 in
Visibility 10.0 miles
Clouds Mostly Cloudy 3800 ft
Overcast 4700 ft
Heat Index 83 °F
Dew Point 59 °F
Humidity 44%
Rainfall 0.00 in
Snow Depth Not available.
UV 6.3 out of 12
Pollen 9.70 out of 12
Air Quality Not available.
Flu Activity Not available.
METAR KFOK 281753Z 17003KT 10SM BKN038 OVC047 23/14 A3018 RMK AO2 SLP218 T02330144 10250 20200 58003
Pressure 30.18 in
Visibility 10.0 miles
Clouds Mostly Cloudy 3800 ft
Overcast 4700 ft
Heat Index 83 °F
Dew Point 59 °F
Humidity 44%
Rainfall 0.00 in
Snow Depth Not available.
UV 6.3 out of 12
Pollen 9.70 out of 12
Air Quality Not available.
Flu Activity Not available.
METAR KFOK 281753Z 17003KT 10SM BKN038 OVC047 23/14 A3018 RMK AO2 SLP218 T02330144 10250 20200 58003

10-Day Weather Forecast

×

Almanac

Astronomy

Aug. 28, 2015 Rise Set
Actual Time
Civil Twilight
Nautical Twilight
Astronomical Twilight
Moon
Length of Visible Light
Length of Day
Tomorrow will be .
, % of the Moon is Illuminated

Today's Extremes

State Highs State Lows

Community

WunderPhotos

Upload Photos

1,850,453 photos uploaded!

WunderBlogs® & News

Nearby

Air Quality

  Air Quality AQ Index Pollutant
Not available.

Snow Depth

Station Depth Elevation

Earthquake Activity

City Distance Mag. Time & Date
Minimum magnitude displayed is 2.5.

Coastal Water Temperatures

Place Temperature

Stations

Nearby Weather Stations

Station Location Temp. Windchill Dew Point Humidity Wind Precip. Elev Updated Type